Time;durP1;ratioP1;P1;durP2;ratioP2;P2;SDS_P1;SDS_P2;PMS_P1;PMS_P2;Temp;Humidity;BMP_temperature;BMP_pressure;BME280_temperature;BME280_humidity;BME280_pressure;Samples;Min_cycle;Max_cycle;Signal;HPM_P1;HPM_P2
2022/09/30 00:00:50;;;;;;;7.32;4.50;;;8.50;99.90;;;7.69;100.00;100659.78;5098640;23;20012;-76
2022/09/30 00:02:51;;;;;;;5.15;4.40;;;8.50;99.90;;;7.66;100.00;100663.50;5072840;23;20010;-77
2022/09/30 00:04:52;;;;;;;6.53;4.72;;;8.50;99.90;;;7.65;100.00;100656.59;5072898;23;20013;-77
2022/09/30 00:06:53;;;;;;;5.72;4.60;;;8.50;99.90;;;7.71;100.00;100666.53;5097158;23;20033;-77
2022/09/30 00:08:56;;;;;;;9.20;5.00;;;8.50;99.90;;;7.60;100.00;100648.31;5072316;23;20018;-77
2022/09/30 00:11:04;;;;;;;7.72;4.85;;;8.50;99.90;;;7.78;100.00;100679.94;5073030;23;20100;-77
2022/09/30 00:13:04;;;;;;;6.72;4.95;;;8.50;99.90;;;7.72;100.00;100667.38;5072679;23;20017;-76
2022/09/30 00:15:06;;;;;;;6.13;4.68;;;8.50;99.90;;;7.73;100.00;100675.13;5072702;23;20099;-77
2022/09/30 00:17:07;;;;;;;7.10;5.20;;;8.50;99.90;;;7.77;100.00;100681.72;5072056;23;20469;-77
2022/09/30 00:19:08;;;;;;;10.70;5.18;;;8.50;99.90;;;7.74;100.00;100679.38;5098194;23;20005;-76
2022/09/30 00:21:11;;;;;;;9.45;4.88;;;8.50;99.90;;;7.80;100.00;100680.63;5072598;23;20006;-77
2022/09/30 00:23:12;;;;;;;7.63;5.07;;;8.60;99.90;;;7.81;100.00;100695.41;5072340;23;20006;-77
2022/09/30 00:25:13;;;;;;;6.38;5.25;;;8.50;99.90;;;7.77;100.00;100691.41;5072147;23;20049;-77
2022/09/30 00:27:17;;;;;;;8.85;6.05;;;8.60;99.90;;;7.79;100.00;100692.91;5072573;23;20021;-77
2022/09/30 00:29:17;;;;;;;5.57;4.50;;;8.60;99.90;;;7.78;100.00;100693.91;5073182;23;20431;-77
2022/09/30 00:31:21;;;;;;;10.07;4.93;;;8.50;99.90;;;7.80;100.00;100699.84;5072475;23;20006;-76
2022/09/30 00:33:22;;;;;;;5.43;4.10;;;8.60;99.90;;;7.77;100.00;100700.13;5072443;23;20005;-77
2022/09/30 00:35:24;;;;;;;5.35;4.47;;;8.50;99.90;;;7.77;100.00;100709.78;5072382;23;20022;-77
2022/09/30 00:37:25;;;;;;;8.00;4.88;;;8.60;99.90;;;7.74;100.00;100708.28;5098637;23;20016;-77
2022/09/30 00:39:28;;;;;;;5.80;4.40;;;8.50;99.90;;;7.71;100.00;100700.66;5072456;23;20006;-77
2022/09/30 00:41:29;;;;;;;9.02;4.90;;;8.50;99.90;;;7.68;100.00;100695.69;5048445;23;20010;-77
2022/09/30 00:43:52;;;;;;;5.80;4.65;;;8.50;99.90;;;7.67;100.00;100699.31;5096858;23;20162;-76
2022/09/30 00:45:58;;;;;;;4.78;4.28;;;8.50;99.90;;;7.66;100.00;100705.50;5072640;23;20010;-76
2022/09/30 00:48:20;;;;;;;8.60;4.22;;;8.40;99.90;;;7.52;100.00;100687.56;5096332;23;20009;-77
2022/09/30 00:50:44;;;;;;;4.93;4.10;;;8.40;99.90;;;7.57;100.00;100703.72;5048675;23;20017;-77
2022/09/30 00:53:22;;;;;;;8.07;4.77;;;8.40;99.90;;;7.55;100.00;100707.44;5073037;23;20017;-77
2022/09/30 00:55:32;;;;;;;5.03;4.10;;;8.40;99.90;;;7.54;100.00;100705.78;5028117;23;20089;-77
2022/09/30 00:57:35;;;;;;;8.80;4.45;;;8.40;99.90;;;7.49;100.00;100702.75;5072827;23;20064;-76
2022/09/30 00:59:43;;;;;;;5.68;4.30;;;8.40;99.90;;;7.38;100.00;100697.63;5072745;23;20002;-77
2022/09/30 01:01:44;;;;;;;6.10;4.53;;;8.30;99.90;;;7.42;100.00;100712.97;5073483;23;20048;-77
2022/09/30 01:03:54;;;;;;;6.25;4.28;;;8.30;99.90;;;7.38;100.00;100711.56;5072142;23;20017;-77
2022/09/30 01:05:55;;;;;;;7.93;4.72;;;8.30;99.90;;;7.36;100.00;100713.50;5072798;23;20021;-76
2022/09/30 01:07:59;;;;;;;8.55;5.38;;;8.20;99.90;;;7.42;100.00;100720.00;5072444;23;20032;-77
2022/09/30 01:10:00;;;;;;;5.13;4.60;;;8.20;99.90;;;7.40;100.00;100721.94;5072928;23;20473;-76
2022/09/30 01:12:16;;;;;;;6.47;5.13;;;8.20;99.90;;;7.37;100.00;100706.47;5048267;23;20014;-76
2022/09/30 01:14:22;;;;;;;5.85;5.00;;;8.20;99.90;;;7.36;100.00;100713.50;5048658;23;20095;-77
2022/09/30 01:16:45;;;;;;;8.23;5.38;;;8.20;99.90;;;7.38;100.00;100732.56;5098661;23;20028;-76
2022/09/30 01:19:00;;;;;;;6.70;5.43;;;8.20;99.90;;;7.37;100.00;100732.69;5072025;23;20042;-76
2022/09/30 01:21:34;;;;;;;7.25;5.93;;;8.20;99.90;;;7.35;100.00;100727.56;5072319;23;20057;-76
2022/09/30 01:24:25;;;;;;;6.47;5.63;;;8.10;99.90;;;7.38;100.00;100727.31;5097880;23;20015;-76
2022/09/30 01:26:59;;;;;;;6.57;5.55;;;8.10;99.90;;;7.36;100.00;100731.88;5098448;23;20029;-76
2022/09/30 01:29:12;;;;;;;8.50;6.20;;;8.10;99.90;;;7.36;100.00;100731.88;5098600;23;20001;-77
2022/09/30 01:31:21;;;;;;;7.80;5.90;;;8.10;99.90;;;7.41;100.00;100729.66;5098289;23;20001;-77
2022/09/30 01:33:39;;;;;;;7.00;6.30;;;8.10;99.90;;;7.39;100.00;100725.50;5098206;23;20068;-76
2022/09/30 01:36:06;;;;;;;7.03;5.90;;;8.20;99.90;;;7.38;100.00;100737.81;5098099;23;20009;-76
2022/09/30 01:38:19;;;;;;;8.65;6.43;;;8.20;99.90;;;7.36;100.00;100737.13;5038412;23;20005;-76
2022/09/30 01:41:03;;;;;;;8.68;6.47;;;8.10;99.90;;;7.33;100.00;100733.94;5098207;23;20005;-76
2022/09/30 01:43:10;;;;;;;6.60;5.72;;;8.10;99.90;;;7.30;100.00;100739.44;5069952;23;20106;-76
2022/09/30 01:45:38;;;;;;;6.75;5.20;;;8.10;99.90;;;7.23;100.00;100739.16;5048555;23;20010;-76
2022/09/30 01:47:57;;;;;;;6.22;5.18;;;8.10;99.90;;;7.14;100.00;100734.72;5097169;23;20084;-76
2022/09/30 01:50:14;;;;;;;6.97;5.40;;;8.00;99.90;;;7.10;100.00;100730.72;5049629;23;20010;-76
2022/09/30 01:52:32;;;;;;;7.25;5.88;;;7.90;99.90;;;7.12;100.00;100731.41;5073493;23;20010;-76
2022/09/30 01:55:02;;;;;;;7.80;6.30;;;7.90;99.90;;;7.04;100.00;100718.13;5073676;23;20009;-76
2022/09/30 01:57:17;;;;;;;9.95;6.25;;;7.90;99.90;;;7.14;100.00;100730.28;5072334;23;20002;-76
2022/09/30 01:59:33;;;;;;;7.10;6.40;;;7.90;99.90;;;7.19;100.00;100749.09;5074774;23;20009;-76
2022/09/30 02:01:58;;;;;;;7.68;6.13;;;7.90;99.90;;;7.19;100.00;100743.03;5075619;23;20010;-76
2022/09/30 02:04:11;;;;;;;9.88;6.47;;;8.00;99.90;;;7.18;100.00;100746.59;5073347;23;20013;-76
2022/09/30 02:06:25;;;;;;;10.32;6.65;;;8.00;99.90;;;7.19;100.00;100743.03;5099462;23;20393;-76
2022/09/30 02:08:58;;;;;;;8.45;6.78;;;8.00;99.90;;;7.21;100.00;100744.53;5073134;23;20006;-76
2022/09/30 02:11:07;;;;;;;11.52;7.03;;;8.00;99.90;;;7.22;100.00;100733.09;5075332;23;20489;-76
2022/09/30 02:13:31;;;;;;;9.82;6.35;;;8.00;99.90;;;7.23;100.00;100739.16;5074454;23;20013;-76
2022/09/30 02:15:38;;;;;;;8.25;5.80;;;8.00;99.90;;;7.18;100.00;100736.09;5074498;23;20512;-76
2022/09/30 02:17:52;;;;;;;8.68;6.80;;;8.00;99.90;;;7.18;100.00;100738.72;5074115;23;20002;-76
2022/09/30 02:20:00;;;;;;;7.97;6.57;;;8.00;99.90;;;7.18;100.00;100743.97;5074471;23;20053;-76
2022/09/30 02:22:28;;;;;;;11.35;7.07;;;8.00;99.90;;;7.14;100.00;100735.53;5074008;23;20005;-76
2022/09/30 02:24:37;;;;;;;7.95;6.53;;;8.00;99.90;;;7.10;100.00;100734.16;5073914;23;20062;-76
2022/09/30 02:26:42;;;;;;;7.30;6.00;;;8.00;99.90;;;7.19;100.00;100746.47;5049543;23;20468;-76
2022/09/30 02:29:16;;;;;;;7.00;5.85;;;8.00;99.90;;;7.16;100.00;100749.38;5073691;23;20467;-76
2022/09/30 02:31:19;;;;;;;8.43;6.32;;;8.00;99.90;;;7.12;100.00;100750.59;5041960;23;20011;-76
2022/09/30 02:33:34;;;;;;;9.27;6.90;;;8.00;99.90;;;7.16;100.00;100749.38;5073718;23;20002;-76
2022/09/30 02:35:46;;;;;;;7.70;6.35;;;8.00;99.90;;;7.00;100.00;100729.84;5049713;23;20329;-76
2022/09/30 02:37:55;;;;;;;10.30;5.95;;;7.90;99.90;;;7.10;100.00;100747.28;5074514;23;20013;-76
2022/09/30 02:40:12;;;;;;;9.02;7.05;;;7.90;99.90;;;7.11;100.00;100756.78;5049442;23;20010;-76
2022/09/30 02:42:20;;;;;;;10.70;6.75;;;7.90;99.90;;;7.10;100.00;100746.44;5073511;23;20096;-76
2022/09/30 02:44:21;;;;;;;8.18;6.07;;;7.90;99.90;;;7.14;100.00;100755.69;5049494;23;20010;-76
2022/09/30 02:46:59;;;;;;;9.23;7.13;;;7.90;99.90;;;7.15;100.00;100763.44;5097666;23;20465;-76
2022/09/30 02:49:27;;;;;;;8.93;6.38;;;7.90;99.90;;;7.10;100.00;100763.03;5098992;23;20021;-76
2022/09/30 02:52:11;;;;;;;7.80;5.93;;;7.90;99.90;;;7.05;100.00;100746.84;5075116;23;20117;-76
2022/09/30 02:54:47;;;;;;;8.30;6.68;;;7.90;99.90;;;7.10;100.00;100764.81;5052174;23;20017;-76
2022/09/30 02:57:45;;;;;;;9.38;6.63;;;7.90;99.90;;;7.10;100.00;100770.06;5099359;23;20029;-76
2022/09/30 02:59:51;;;;;;;10.05;6.05;;;7.90;99.90;;;7.08;100.00;100777.22;5066440;23;20013;-76
2022/09/30 03:01:53;;;;;;;7.25;6.50;;;7.90;99.90;;;7.05;100.00;100778.31;5049226;23;20002;-76
2022/09/30 03:03:59;;;;;;;8.60;6.53;;;7.90;99.90;;;7.01;100.00;100763.81;5073078;23;20093;-76
2022/09/30 03:06:00;;;;;;;7.72;6.20;;;7.80;99.90;;;7.04;100.00;100775.84;5073448;23;20006;-76
2022/09/30 03:08:02;;;;;;;7.20;5.10;;;7.90;99.90;;;6.97;100.00;100772.91;5098945;23;20005;-76
2022/09/30 03:10:14;;;;;;;5.90;4.95;;;7.80;99.90;;;6.92;100.00;100769.84;5072937;23;20082;-76
2022/09/30 03:13:09;;;;;;;6.10;4.53;;;7.80;99.90;;;6.82;100.00;100771.59;5072900;23;20010;-76
2022/09/30 03:15:39;;;;;;;7.03;5.28;;;7.70;99.90;;;6.75;100.00;100774.88;4984924;23;20112;-76
2022/09/30 03:18:02;;;;;;;7.93;5.00;;;7.70;99.90;;;6.71;100.00;100783.97;5099143;23;20006;-76
2022/09/30 03:20:57;;;;;;;7.15;5.20;;;7.60;99.90;;;6.67;100.00;100784.22;5073035;23;20006;-76
2022/09/30 03:23:28;;;;;;;8.15;4.95;;;7.50;99.90;;;6.67;100.00;100789.47;5098974;23;20009;-76
2022/09/30 03:25:56;;;;;;;7.55;5.53;;;7.50;99.90;;;6.68;100.00;100798.16;5072641;23;20010;-76
2022/09/30 03:28:22;;;;;;;10.32;6.57;;;7.50;99.90;;;6.69;100.00;100805.88;5097331;23;20013;-76
2022/09/30 03:30:27;;;;;;;9.10;6.60;;;7.50;99.90;;;6.83;100.00;100812.59;5084389;23;20453;-76
2022/09/30 03:32:55;;;;;;;7.55;6.78;;;7.60;99.90;;;6.87;100.00;100803.47;5048998;23;20065;-76
2022/09/30 03:35:12;;;;;;;9.48;7.28;;;7.70;99.90;;;6.95;100.00;100810.72;5098478;23;20085;-76
2022/09/30 03:37:45;;;;;;;8.70;6.78;;;7.70;99.90;;;6.95;100.00;100805.47;5098976;23;20036;-76
2022/09/30 03:40:23;;;;;;;9.70;7.65;;;7.70;99.90;;;7.03;100.00;100816.13;5074575;23;20002;-76
2022/09/30 03:42:39;;;;;;;8.98;7.15;;;7.80;99.90;;;7.03;100.00;100816.13;5061771;23;20093;-76
2022/09/30 03:45:08;;;;;;;11.13;7.68;;;7.80;99.90;;;7.05;100.00;100817.66;5049144;23;20011;-76
2022/09/30 03:47:13;;;;;;;8.77;7.10;;;7.90;99.90;;;7.04;100.00;100823.03;5079423;23;20009;-76
2022/09/30 03:49:23;;;;;;;10.05;7.45;;;7.80;99.90;;;7.02;100.00;100823.16;5049055;23;20010;-76
2022/09/30 03:51:24;;;;;;;10.90;7.45;;;7.80;99.90;;;7.01;100.00;100826.75;5073192;23;20065;-76
2022/09/30 03:53:27;;;;;;;7.38;6.60;;;7.80;99.90;;;6.96;100.00;100818.44;5072413;23;20005;-76
2022/09/30 03:55:29;;;;;;;10.57;7.07;;;7.80;99.90;;;6.99;100.00;100826.03;5098729;23;20053;-76
2022/09/30 03:57:30;;;;;;;7.45;6.65;;;7.80;99.90;;;6.88;100.00;100799.91;5073055;23;20029;-76
2022/09/30 03:59:31;;;;;;;8.68;7.47;;;7.80;99.90;;;6.96;100.00;100820.25;5072853;23;20006;-76
2022/09/30 04:01:32;;;;;;;7.35;6.28;;;7.80;99.90;;;6.96;100.00;100828.13;5098630;23;20005;-76
2022/09/30 04:03:34;;;;;;;12.40;6.68;;;7.80;99.90;;;6.94;100.00;100832.63;5048121;23;20017;-76
2022/09/30 04:05:35;;;;;;;7.80;6.70;;;7.80;99.90;;;6.92;100.00;100838.03;5048215;23;20049;-76
2022/09/30 04:07:36;;;;;;;8.48;6.70;;;7.80;99.90;;;6.94;100.00;100843.13;5097157;23;20009;-76
2022/09/30 04:09:38;;;;;;;7.72;6.40;;;7.80;99.90;;;6.92;100.00;100840.66;5072968;23;20038;-76
2022/09/30 04:11:39;;;;;;;8.63;6.70;;;7.70;99.90;;;6.93;100.00;100842.28;5072758;23;20062;-76
2022/09/30 04:13:40;;;;;;;9.55;7.15;;;7.70;99.90;;;6.91;100.00;100841.59;5072712;23;20472;-76
2022/09/30 04:15:41;;;;;;;8.30;6.32;;;7.70;99.90;;;6.89;100.00;100832.22;5098554;23;20008;-76
2022/09/30 04:17:42;;;;;;;10.77;6.57;;;7.70;99.90;;;6.83;100.00;100832.72;5048285;23;20002;-76
2022/09/30 04:19:43;;;;;;;9.65;6.20;;;7.70;99.90;;;6.86;100.00;100835.09;5072660;23;20002;-76
2022/09/30 04:21:44;;;;;;;6.80;5.68;;;7.70;99.90;;;6.85;100.00;100838.66;5072373;23;20017;-76
2022/09/30 04:23:46;;;;;;;10.85;6.47;;;7.70;99.90;;;6.77;100.00;100841.13;5098054;23;20350;-76
2022/09/30 04:25:55;;;;;;;8.27;6.68;;;7.60;99.90;;;6.80;100.00;100846.09;5072499;23;20438;-76
2022/09/30 04:27:56;;;;;;;9.75;6.47;;;7.60;99.90;;;6.75;100.00;100838.59;5098697;23;20005;-76
2022/09/30 04:29:57;;;;;;;10.68;5.97;;;7.60;99.90;;;6.75;100.00;100849.09;5072526;23;20010;-76
2022/09/30 04:31:59;;;;;;;7.28;5.60;;;7.60;99.90;;;6.66;100.00;100834.97;5098514;23;20010;-76
2022/09/30 04:34:00;;;;;;;10.00;6.75;;;7.50;99.90;;;6.68;100.00;100840.09;5072502;23;20002;-76
2022/09/30 04:36:01;;;;;;;9.38;6.10;;;7.50;99.90;;;6.67;100.00;100841.03;5072468;23;20014;-76
2022/09/30 04:38:06;;;;;;;7.57;6.00;;;7.50;99.90;;;6.65;100.00;100830.72;5097988;23;20002;-76
2022/09/30 04:40:09;;;;;;;11.88;6.53;;;7.50;99.90;;;6.50;100.00;100802.31;5098385;23;20009;-76
2022/09/30 04:42:10;;;;;;;7.73;6.37;;;7.50;99.90;;;6.55;100.00;100816.69;5098348;23;20461;-76
2022/09/30 04:44:12;;;;;;;7.13;6.38;;;7.50;99.90;;;6.61;100.00;100824.06;5072790;23;20241;-76
2022/09/30 04:46:15;;;;;;;7.72;6.25;;;7.50;99.90;;;6.56;100.00;100818.38;5098357;23;20010;-76
2022/09/30 04:48:17;;;;;;;8.65;5.25;;;7.50;99.90;;;6.59;100.00;100823.34;5072483;23;20036;-76
2022/09/30 04:50:18;;;;;;;6.90;4.80;;;7.50;99.90;;;6.53;100.00;100820.41;5048406;23;20037;-76
2022/09/30 04:52:19;;;;;;;5.78;4.97;;;7.40;99.90;;;6.47;100.00;100820.91;5072311;23;20014;-76
2022/09/30 04:54:20;;;;;;;7.93;5.00;;;7.40;99.90;;;6.45;100.00;100821.03;5097999;23;20009;-76
2022/09/30 04:56:23;;;;;;;5.82;5.13;;;7.30;99.90;;;6.40;100.00;100817.13;5072469;23;20002;-76
2022/09/30 04:58:24;;;;;;;9.05;6.30;;;7.30;99.90;;;6.31;100.00;100818.75;5048324;23;20081;-76
2022/09/30 05:00:24;;;;;;;6.43;4.63;;;7.30;99.90;;;6.27;100.00;100833.06;5097149;23;20361;-76
2022/09/30 05:02:25;;;;;;;4.35;3.95;;;7.20;99.90;;;6.21;100.00;100822.25;5072616;23;20010;-76
2022/09/30 05:04:26;;;;;;;6.40;4.93;;;7.10;99.90;;;6.17;100.00;100826.91;5098395;23;20005;-76
2022/09/30 05:06:27;;;;;;;5.85;5.00;;;7.10;99.90;;;6.18;100.00;100832.97;5048088;23;20017;-76
2022/09/30 05:08:28;;;;;;;6.35;4.95;;;7.00;99.90;;;6.13;100.00;100830.72;5071466;23;20058;-77
2022/09/30 05:10:29;;;;;;;5.50;4.47;;;7.00;99.90;;;6.00;100.00;100817.00;5072466;23;20387;-77
2022/09/30 05:12:30;;;;;;;6.18;5.03;;;7.00;99.90;;;6.08;100.00;100843.38;5097075;23;20422;-77
2022/09/30 05:14:32;;;;;;;6.07;4.60;;;7.00;99.90;;;6.06;100.00;100842.69;5048057;23;20038;-77
2022/09/30 05:16:33;;;;;;;6.28;4.82;;;7.00;99.90;;;5.95;100.00;100837.44;5098119;23;20013;-77
2022/09/30 05:18:34;;;;;;;8.07;5.90;;;6.90;99.90;;;6.03;100.00;100861.25;5098195;23;20338;-77
2022/09/30 05:20:35;;;;;;;8.63;6.00;;;6.90;99.90;;;5.89;100.00;100849.25;5098179;23;20016;-77
2022/09/30 05:22:37;;;;;;;8.95;6.10;;;6.90;99.90;;;5.96;100.00;100860.06;5072290;23;20427;-77
2022/09/30 05:24:37;;;;;;;8.70;6.75;;;6.80;99.90;;;5.92;100.00;100864.72;5098183;23;20084;-77
2022/09/30 05:26:39;;;;;;;7.53;6.28;;;6.80;99.90;;;5.95;100.00;100868.88;5098165;23;20032;-76
2022/09/30 05:28:41;;;;;;;9.13;7.80;;;6.80;99.90;;;5.94;100.00;100864.63;5072307;23;20090;-77
2022/09/30 05:30:42;;;;;;;11.63;8.40;;;6.80;99.90;;;5.94;100.00;100867.22;5072292;23;20010;-77
2022/09/30 05:32:43;;;;;;;9.98;7.95;;;6.80;99.90;;;6.03;100.00;100884.81;5072458;23;20351;-77
2022/09/30 05:34:46;;;;;;;8.55;7.50;;;6.90;99.90;;;6.06;100.00;100879.34;5099705;23;20008;-77
2022/09/30 05:36:47;;;;;;;13.88;7.82;;;6.90;99.90;;;6.16;100.00;100887.25;5049188;23;20329;-76
2022/09/30 05:38:51;;;;;;;9.52;6.38;;;7.00;99.90;;;6.16;100.00;100895.09;5073427;23;20048;-76
2022/09/30 05:40:52;;;;;;;9.13;7.43;;;7.00;99.90;;;6.24;100.00;100906.66;5049478;23;20006;-76
2022/09/30 05:42:55;;;;;;;9.50;7.47;;;7.00;99.90;;;6.29;100.00;100909.72;5098202;23;20012;-77
2022/09/30 05:44:56;;;;;;;8.98;7.43;;;7.10;99.90;;;6.30;100.00;100900.88;5073670;23;20014;-77
2022/09/30 05:46:57;;;;;;;10.00;7.13;;;7.10;99.90;;;6.35;100.00;100908.41;5073781;23;20390;-76
2022/09/30 05:48:58;;;;;;;11.23;7.28;;;7.10;99.90;;;6.34;100.00;100917.19;5099559;23;20427;-76
2022/09/30 05:51:00;;;;;;;11.18;8.68;;;7.10;99.90;;;6.36;100.00;100929.22;5099667;23;20005;-76
2022/09/30 05:53:01;;;;;;;11.18;7.72;;;7.20;99.90;;;6.34;100.00;100923.28;5099439;23;20005;-77
2022/09/30 05:55:02;;;;;;;10.43;8.85;;;7.20;99.90;;;6.39;100.00;100918.47;5073379;23;20041;-76
2022/09/30 05:57:03;;;;;;;8.35;6.95;;;7.20;99.90;;;6.25;100.00;100908.31;5049485;23;20077;-76
2022/09/30 05:59:05;;;;;;;9.07;7.15;;;7.20;99.90;;;6.39;100.00;100928.16;5049097;23;20447;-76
2022/09/30 06:01:11;;;;;;;7.40;6.70;;;7.20;99.90;;;6.27;100.00;100906.41;5073562;23;20089;-76
2022/09/30 06:03:12;;;;;;;10.50;7.47;;;7.20;99.90;;;6.40;100.00;100929.81;5099259;23;20009;-78
2022/09/30 06:05:13;;;;;;;8.50;7.05;;;7.20;99.90;;;6.37;100.00;100917.78;5073350;23;20403;-77
2022/09/30 06:07:14;;;;;;;8.52;6.57;;;7.20;99.90;;;6.39;100.00;100921.09;5073015;23;20010;-77
2022/09/30 06:09:16;;;;;;;11.30;8.20;;;7.30;99.90;;;6.41;100.00;100928.84;5099144;23;20017;-77
2022/09/30 06:11:20;;;;;;;9.05;7.68;;;7.30;99.90;;;6.42;100.00;100920.84;5049077;23;20042;-78
2022/09/30 06:13:21;;;;;;;;;;;7.30;99.90;;;6.43;100.00;100922.53;5074397;23;20392;-78
2022/09/30 06:15:22;;;;;;;11.63;7.15;;;7.30;99.90;;;6.37;100.00;100906.47;5073391;23;19932;-78
2022/09/30 06:17:23;;;;;;;11.00;6.80;;;7.30;99.90;;;6.33;100.00;100905.88;5096747;23;20006;-78
2022/09/30 06:19:24;;;;;;;8.20;7.00;;;7.30;99.90;;;6.43;100.00;100929.56;5049029;23;20033;-78
2022/09/30 06:21:24;;;;;;;7.40;6.18;;;7.30;99.90;;;6.30;100.00;100929.72;5048902;23;20006;-78
2022/09/30 06:23:26;;;;;;;8.35;6.35;;;7.30;99.90;;;6.36;100.00;100939.69;5098723;23;20017;-78
2022/09/30 06:25:29;;;;;;;7.15;6.13;;;7.30;99.90;;;6.24;100.00;100918.91;5099242;23;20009;-78
2022/09/30 06:27:32;;;;;;;8.93;5.60;;;7.30;99.90;;;6.31;100.00;100941.03;5072938;23;20006;-78
2022/09/30 06:29:36;;;;;;;6.30;5.70;;;7.20;99.90;;;6.27;100.00;100937.84;5073633;23;20016;-78
2022/09/30 06:31:37;;;;;;;6.88;5.40;;;7.20;99.90;;;6.18;100.00;100917.63;5099028;23;20005;-78
2022/09/30 06:33:38;;;;;;;6.68;5.53;;;7.10;99.90;;;6.21;100.00;100925.25;5049112;23;20081;-78
2022/09/30 06:35:42;;;;;;;7.15;5.40;;;7.10;99.90;;;6.17;100.00;100925.59;5099094;23;20071;-78
2022/09/30 06:37:44;;;;;;;6.03;4.90;;;7.10;99.90;;;6.09;100.00;100918.38;5073918;23;20006;-78
2022/09/30 06:39:45;;;;;;;7.47;5.18;;;7.10;99.90;;;6.09;100.00;100924.41;5073312;23;20010;-78
2022/09/30 06:41:46;;;;;;;7.03;4.78;;;7.00;99.90;;;6.03;100.00;100908.38;5073345;23;20033;-78
2022/09/30 06:43:47;;;;;;;6.30;4.95;;;7.00;99.90;;;6.02;100.00;100914.56;5073374;23;20049;-77
2022/09/30 06:45:50;;;;;;;6.05;5.25;;;7.00;99.90;;;5.92;100.00;100904.00;5072818;23;20006;-78
2022/09/30 06:47:56;;;;;;;6.07;5.18;;;6.90;99.90;;;6.00;100.00;100919.09;5097723;23;20005;-78
2022/09/30 06:49:57;;;;;;;5.28;4.78;;;6.90;99.90;;;5.96;100.00;100912.44;5073418;23;20057;-79
2022/09/30 06:51:59;;;;;;;5.38;4.80;;;6.90;99.90;;;5.93;100.00;100902.22;5073348;23;20017;-78
2022/09/30 06:54:00;;;;;;;5.22;4.72;;;6.90;99.90;;;5.88;100.00;100901.75;5098859;23;20005;-78
2022/09/30 06:56:01;;;;;;;5.50;4.90;;;6.90;99.90;;;6.01;100.00;100916.34;5073475;23;20006;-78
2022/09/30 06:58:02;;;;;;;6.45;5.10;;;6.90;99.90;;;5.98;100.00;100913.97;5072847;23;20045;-78
2022/09/30 07:00:04;;;;;;;5.50;4.78;;;6.90;99.90;;;5.93;100.00;100896.97;5073100;23;20041;-78
2022/09/30 07:02:05;;;;;;;7.95;5.20;;;6.90;99.90;;;6.05;100.00;100923.00;5047187;23;20070;-78
2022/09/30 07:04:08;;;;;;;5.45;4.75;;;7.00;99.90;;;6.03;100.00;100911.81;5099200;23;20014;-77
2022/09/30 07:06:11;;;;;;;5.80;5.10;;;7.00;99.90;;;6.00;100.00;100898.97;5048881;23;20038;-82
2022/09/30 07:08:12;;;;;;;8.05;6.28;;;7.00;99.90;;;6.09;100.00;100913.94;5096958;23;20013;-81
2022/09/30 07:10:13;;;;;;;6.13;5.13;;;7.00;99.90;;;6.18;100.00;100911.56;5072995;23;20013;-82
2022/09/30 07:12:15;;;;;;;6.95;5.90;;;7.10;99.90;;;6.12;100.00;100892.75;5098799;23;20033;-80
2022/09/30 07:14:16;;;;;;;6.75;5.82;;;7.10;99.90;;;6.24;100.00;100895.34;5098983;23;20009;-78
2022/09/30 07:16:20;;;;;;;5.78;5.00;;;7.20;99.90;;;6.13;100.00;100872.63;5048654;23;20003;-78
2022/09/30 07:18:22;;;;;;;5.70;5.00;;;7.20;99.90;;;6.21;100.00;100885.13;5048895;23;20009;-77
2022/09/30 07:20:23;;;;;;;6.82;5.50;;;7.20;99.90;;;6.28;100.00;100900.19;5098854;23;20510;-78
2022/09/30 07:22:29;;;;;;;9.63;5.72;;;7.20;99.90;;;6.34;100.00;100902.31;5072671;23;20012;-78
2022/09/30 07:24:30;;;;;;;5.95;5.10;;;7.30;99.90;;;6.38;100.00;100901.13;5072936;23;20045;-78
2022/09/30 07:26:31;;;;;;;6.38;5.40;;;7.30;99.90;;;6.38;100.00;100908.97;5097409;23;20010;-79
2022/09/30 07:28:35;;;;;;;5.85;5.25;;;7.30;99.90;;;6.52;100.00;100927.03;5098758;23;20009;-78
2022/09/30 07:30:36;;;;;;;6.53;5.82;;;7.40;99.90;;;6.58;100.00;100937.00;5072939;23;20075;-78
2022/09/30 07:32:37;;;;;;;7.15;5.55;;;7.50;99.90;;;6.61;100.00;100928.88;5048233;23;20010;-79
2022/09/30 07:34:41;;;;;;;7.18;5.88;;;7.50;99.90;;;6.66;100.00;100928.50;5072977;23;20009;-78
2022/09/30 07:36:42;;;;;;;;;;;7.60;99.90;;;6.67;100.00;100919.69;5073491;23;20463;-78
2022/09/30 07:38:49;;;;;;;7.78;6.00;;;7.60;99.90;;;6.79;100.00;100930.94;5072147;23;19948;-78
2022/09/30 07:41:02;;;;;;;8.35;7.13;;;7.70;99.90;;;6.87;100.00;100931.97;5074037;23;20346;-79
2022/09/30 07:43:04;;;;;;;6.80;5.85;;;7.80;99.90;;;7.01;100.00;100938.69;5048566;23;20467;-79
2022/09/30 07:45:06;;;;;;;9.45;6.93;;;7.90;99.90;;;7.04;100.00;100934.03;5097381;23;20593;-79
2022/09/30 07:47:08;;;;;;;8.50;7.05;;;8.00;99.90;;;7.27;100.00;100960.09;5098673;23;20006;-79
2022/09/30 07:49:23;;;;;;;11.75;8.52;;;8.10;99.90;;;7.36;100.00;100954.09;5048638;23;20038;-79
2022/09/30 07:51:31;;;;;;;8.43;7.57;;;8.20;99.90;;;7.41;100.00;100947.47;5049929;23;20006;-79
2022/09/30 07:53:32;;;;;;;12.20;8.85;;;8.30;99.90;;;7.59;100.00;100961.66;5098441;23;20002;-79
2022/09/30 07:55:33;;;;;;;12.05;8.65;;;8.40;99.90;;;7.53;100.00;100945.59;5072909;23;20009;-79
2022/09/30 07:57:34;;;;;;;9.93;8.35;;;8.50;99.90;;;7.71;100.00;100975.53;5072998;23;20002;-79
2022/09/30 07:59:38;;;;;;;9.77;8.57;;;8.60;99.90;;;7.67;100.00;100951.34;5072152;23;20013;-79
2022/09/30 08:01:39;;;;;;;;;;;8.60;99.90;;;7.82;100.00;100974.63;5099145;23;20006;-79
2022/09/30 08:03:43;;;;;;;9.50;8.43;;;8.70;99.90;;;7.86;100.00;100973.38;5098740;23;19943;-79
2022/09/30 08:05:44;;;;;;;12.40;8.98;;;8.80;99.90;;;7.84;100.00;100957.75;5072660;23;20077;-79
2022/09/30 08:07:45;;;;;;;8.85;7.95;;;8.80;99.90;;;8.02;100.00;100974.53;5071997;23;20352;-79
2022/09/30 08:09:46;;;;;;;8.55;7.28;;;8.90;99.90;;;8.12;100.00;100977.19;5048096;23;20007;-80
2022/09/30 08:11:48;;;;;;;7.90;7.10;;;9.00;99.90;;;8.19;100.00;100980.94;5098548;23;20070;-80
2022/09/30 08:13:54;;;;;;;10.80;7.95;;;9.10;99.90;;;8.26;100.00;100977.66;5048270;23;20070;-79
2022/09/30 08:15:55;;;;;;;9.25;7.97;;;9.20;99.90;;;8.25;100.00;100967.25;5048135;23;20011;-80
2022/09/30 08:17:56;;;;;;;9.52;8.32;;;9.20;99.90;;;8.37;100.00;100974.09;5072640;23;20026;-80
2022/09/30 08:19:56;;;;;;;12.20;9.13;;;9.30;99.90;;;8.48;100.00;100967.91;5048387;23;20439;-81
2022/09/30 08:21:57;;;;;;;8.95;8.00;;;9.40;99.90;;;8.59;100.00;100965.13;5096843;23;20006;-79
2022/09/30 08:23:58;;;;;;;10.30;8.75;;;9.50;99.90;;;8.77;100.00;100981.88;5098073;23;20033;-79
2022/09/30 08:26:09;;;;;;;11.05;9.30;;;9.60;99.90;;;8.80;100.00;100966.66;5072527;23;20016;-79
2022/09/30 08:28:10;;;;;;;10.88;8.77;;;9.70;99.90;;;9.01;100.00;100987.53;5072442;23;20006;-79
2022/09/30 08:30:11;;;;;;;11.25;8.57;;;9.80;99.90;;;9.10;100.00;100997.25;5071986;23;20014;-79
2022/09/30 08:32:12;;;;;;;10.70;9.60;;;9.90;99.90;;;9.15;100.00;100991.53;5096836;23;20387;-79
2022/09/30 08:34:13;;;;;;;14.15;11.73;;;10.00;99.90;;;9.13;100.00;100973.28;5072569;23;20002;-79
2022/09/30 08:36:24;;;;;;;9.82;8.48;;;10.00;99.90;;;9.21;100.00;100975.19;5098357;23;20070;-79
2022/09/30 08:38:24;;;;;;;7.47;6.63;;;10.10;99.90;;;9.29;100.00;100978.75;5097946;23;20391;-79
2022/09/30 08:40:30;;;;;;;9.65;7.50;;;10.20;99.90;;;9.39;100.00;100984.84;5098243;23;20017;-79
2022/09/30 08:42:51;;;;;;;8.52;7.63;;;10.30;99.90;;;9.58;100.00;100994.50;5072488;23;20402;-79
2022/09/30 08:44:52;;;;;;;8.98;6.75;;;10.40;99.90;;;9.64;100.00;100999.19;5098239;23;20013;-79
2022/09/30 08:47:18;;;;;;;9.05;6.85;;;10.50;99.90;;;9.76;100.00;101005.13;5072736;23;20013;-79
2022/09/30 08:49:53;;;;;;;8.38;7.20;;;10.60;99.90;;;9.83;100.00;101003.53;5098502;23;20010;-79
2022/09/30 08:51:56;;;;;;;7.95;6.95;;;10.70;99.90;;;9.91;100.00;101007.16;5076861;23;20013;-79
2022/09/30 08:54:01;;;;;;;10.45;7.90;;;10.80;99.90;;;10.06;100.00;101014.56;5047923;23;20443;-79
2022/09/30 08:56:04;;;;;;;9.63;8.63;;;10.90;99.90;;;10.12;100.00;100999.00;5048084;23;20015;-79